createdAt,value
2017-11-06T00:00:31.210Z,0.00
2017-11-06T00:01:31.241Z,0.00
2017-11-06T00:02:31.270Z,0.00
2017-11-06T00:03:31.300Z,0.00
2017-11-06T00:04:31.330Z,0.00
2017-11-06T00:05:31.360Z,0.00
2017-11-06T00:06:31.389Z,0.00
2017-11-06T00:07:31.418Z,0.00
2017-11-06T00:08:31.447Z,0.00
2017-11-06T00:09:31.477Z,0.00
2017-11-06T00:10:31.508Z,0.00
2017-11-06T00:11:31.537Z,0.00
2017-11-06T00:12:31.567Z,0.00
2017-11-06T00:13:31.596Z,0.00
2017-11-06T00:14:31.626Z,0.00
2017-11-06T00:15:31.656Z,0.00
2017-11-06T00:16:31.684Z,0.00
2017-11-06T00:17:31.714Z,0.00
2017-11-06T00:18:31.744Z,0.00
2017-11-06T00:19:31.774Z,0.00
2017-11-06T00:20:31.802Z,0.00
2017-11-06T00:21:31.832Z,0.00
2017-11-06T00:22:31.861Z,0.00
2017-11-06T00:23:31.893Z,0.00
2017-11-06T00:24:31.919Z,0.00
2017-11-06T00:25:31.950Z,0.00
2017-11-06T00:26:31.980Z,0.00
2017-11-06T00:27:32.009Z,0.00
2017-11-06T00:28:32.037Z,0.00
2017-11-06T00:29:32.067Z,0.00
2017-11-06T00:30:32.097Z,0.00
2017-11-06T00:31:32.131Z,0.00
2017-11-06T00:32:32.156Z,0.00
2017-11-06T00:33:32.185Z,0.00
2017-11-06T00:34:32.215Z,0.00
2017-11-06T00:35:32.243Z,0.00
2017-11-06T00:36:32.273Z,0.00
2017-11-06T00:37:32.301Z,0.00
2017-11-06T00:38:32.335Z,0.00
2017-11-06T00:39:32.361Z,0.00
2017-11-06T00:40:32.395Z,0.00
2017-11-06T00:41:32.420Z,0.00
2017-11-06T00:42:32.449Z,0.00
2017-11-06T00:43:32.481Z,0.00
2017-11-06T00:44:32.507Z,0.00
2017-11-06T00:45:32.536Z,0.00
2017-11-06T00:46:32.567Z,0.00
2017-11-06T00:47:32.596Z,0.00
2017-11-06T00:48:32.624Z,0.00
2017-11-06T00:49:32.654Z,0.00
2017-11-06T00:50:32.733Z,0.00
2017-11-06T00:51:32.713Z,0.00
2017-11-06T00:52:32.740Z,0.00
2017-11-06T00:53:32.770Z,0.00
2017-11-06T00:54:32.799Z,0.00
2017-11-06T00:55:32.829Z,0.00
2017-11-06T00:56:32.858Z,0.00
2017-11-06T00:57:32.887Z,0.00
2017-11-06T00:58:32.916Z,0.00
2017-11-06T00:59:32.946Z,0.00
2017-11-06T01:00:33.024Z,0.00
2017-11-06T01:01:33.002Z,0.00
2017-11-06T01:02:33.032Z,0.00
2017-11-06T01:03:33.090Z,0.00
2017-11-06T01:04:33.090Z,0.00
2017-11-06T01:05:33.122Z,0.00
2017-11-06T01:06:33.149Z,0.00
2017-11-06T01:07:33.179Z,0.00
2017-11-06T01:08:33.207Z,0.00
2017-11-06T01:09:33.236Z,0.00
2017-11-06T01:10:33.316Z,0.00
2017-11-06T01:11:33.297Z,0.00
2017-11-06T01:12:33.323Z,0.00
2017-11-06T01:13:33.353Z,0.00
2017-11-06T01:14:33.383Z,0.00
2017-11-06T01:15:33.411Z,0.00
2017-11-06T01:16:33.439Z,0.00
2017-11-06T01:17:33.468Z,0.00
2017-11-06T01:18:33.498Z,0.00
2017-11-06T01:19:33.526Z,0.00
2017-11-06T01:20:33.605Z,0.00
2017-11-06T01:21:33.584Z,0.00
2017-11-06T01:22:33.613Z,0.00
2017-11-06T01:23:33.643Z,0.00
2017-11-06T01:24:33.671Z,0.00
2017-11-06T01:25:33.700Z,0.00
2017-11-06T01:26:33.730Z,0.00
2017-11-06T01:27:33.758Z,0.00
2017-11-06T01:28:33.788Z,0.00
2017-11-06T01:29:33.818Z,0.00
2017-11-06T01:30:33.851Z,0.00
2017-11-06T01:31:33.876Z,0.00
2017-11-06T01:32:33.904Z,0.00
2017-11-06T01:33:33.934Z,0.00
2017-11-06T01:34:33.967Z,0.00
2017-11-06T01:35:33.993Z,0.00
2017-11-06T01:36:34.021Z,0.00
2017-11-06T01:37:34.050Z,0.00
2017-11-06T01:38:34.079Z,0.00
2017-11-06T01:39:34.108Z,0.00
2017-11-06T01:40:34.137Z,0.00
2017-11-06T01:41:34.166Z,0.00
2017-11-06T01:42:34.195Z,0.00
2017-11-06T01:43:34.224Z,0.00
2017-11-06T01:44:34.253Z,0.00
2017-11-06T01:45:34.283Z,0.00
2017-11-06T01:46:34.312Z,0.00
2017-11-06T01:47:34.341Z,0.00
2017-11-06T01:48:34.370Z,0.00
2017-11-06T01:49:34.398Z,0.00
2017-11-06T01:50:34.428Z,0.00
2017-11-06T01:51:34.506Z,0.00
2017-11-06T01:52:34.485Z,0.00
2017-11-06T01:53:34.512Z,0.00
2017-11-06T01:54:34.543Z,0.00
2017-11-06T01:55:34.573Z,0.00
2017-11-06T01:56:34.601Z,0.00
2017-11-06T01:57:34.630Z,0.00
2017-11-06T01:58:34.659Z,0.00
2017-11-06T01:59:34.690Z,0.00
2017-11-06T02:00:34.716Z,0.00
2017-11-06T02:01:34.745Z,0.00
2017-11-06T02:02:34.773Z,0.00
2017-11-06T02:03:34.804Z,0.00
2017-11-06T02:04:34.830Z,0.00
2017-11-06T02:05:34.861Z,0.00
2017-11-06T02:06:34.891Z,0.00
2017-11-06T02:07:34.919Z,0.00
2017-11-06T02:08:34.947Z,0.00
2017-11-06T02:09:34.980Z,0.00
2017-11-06T02:10:35.005Z,0.00
2017-11-06T02:11:35.034Z,0.00
2017-11-06T02:12:35.063Z,0.00
2017-11-06T02:13:35.091Z,0.00
2017-11-06T02:14:35.120Z,0.00
2017-11-06T02:15:35.152Z,0.00
2017-11-06T02:16:35.179Z,0.00
2017-11-06T02:17:35.257Z,0.00
2017-11-06T02:18:35.236Z,0.00
2017-11-06T02:19:35.265Z,0.00
2017-11-06T02:20:35.313Z,0.00
2017-11-06T02:21:35.321Z,0.00
2017-11-06T02:22:35.355Z,0.00
2017-11-06T02:23:35.381Z,0.00
2017-11-06T02:24:35.408Z,0.00
2017-11-06T02:25:35.438Z,0.00
2017-11-06T02:26:35.467Z,0.00
2017-11-06T02:27:35.498Z,0.00
2017-11-06T02:28:35.523Z,0.00
2017-11-06T02:29:35.552Z,0.00
2017-11-06T02:30:35.580Z,0.00
2017-11-06T02:31:35.610Z,0.00
2017-11-06T02:32:35.638Z,0.00
2017-11-06T02:33:35.668Z,0.00
2017-11-06T02:34:35.696Z,0.00
2017-11-06T02:35:35.726Z,0.00
2017-11-06T02:36:35.754Z,0.00
2017-11-06T02:37:35.780Z,0.00
2017-11-06T02:38:35.810Z,0.00
2017-11-06T02:39:35.839Z,0.00
2017-11-06T02:40:35.867Z,0.00
2017-11-06T02:41:35.897Z,0.00
2017-11-06T02:42:35.925Z,0.00
2017-11-06T02:43:35.954Z,0.00
2017-11-06T02:44:35.983Z,0.00
2017-11-06T02:45:36.012Z,0.00
2017-11-06T02:46:36.040Z,0.00
2017-11-06T02:47:36.071Z,0.00
2017-11-06T02:48:36.096Z,0.00
2017-11-06T02:49:36.126Z,0.00
2017-11-06T02:50:36.154Z,0.00
2017-11-06T02:51:36.183Z,0.00
2017-11-06T02:52:36.210Z,0.00
2017-11-06T02:53:36.239Z,0.00
2017-11-06T02:54:36.270Z,0.00
2017-11-06T02:55:36.299Z,0.00
2017-11-06T02:56:36.326Z,0.00
2017-11-06T02:57:36.356Z,0.00
2017-11-06T02:58:36.384Z,0.00
2017-11-06T02:59:36.464Z,0.00
2017-11-06T03:00:36.443Z,0.00
2017-11-06T03:01:36.470Z,0.00
2017-11-06T03:02:36.499Z,0.00
2017-11-06T03:03:36.527Z,0.00
2017-11-06T03:04:36.557Z,0.00
2017-11-06T03:05:36.586Z,0.00
2017-11-06T03:06:36.616Z,0.00
2017-11-06T03:07:36.643Z,0.00
2017-11-06T03:08:36.671Z,0.00
2017-11-06T03:09:36.701Z,0.00
2017-11-06T03:10:36.730Z,0.00
2017-11-06T03:11:36.759Z,0.00
2017-11-06T03:12:36.787Z,0.00
2017-11-06T03:13:36.816Z,0.00
2017-11-06T03:14:36.845Z,0.00
2017-11-06T03:15:36.874Z,0.00
2017-11-06T03:16:36.902Z,0.00
2017-11-06T03:17:36.932Z,0.00
2017-11-06T03:18:36.961Z,0.00
2017-11-06T03:19:36.989Z,0.00
2017-11-06T03:20:37.022Z,0.00
2017-11-06T03:21:37.046Z,0.00
2017-11-06T03:22:37.077Z,0.00
2017-11-06T03:23:37.104Z,0.00
2017-11-06T03:24:37.133Z,0.00
2017-11-06T03:25:37.169Z,0.00
2017-11-06T03:26:37.190Z,0.00
2017-11-06T03:27:37.220Z,0.00
2017-11-06T03:28:37.247Z,0.00
2017-11-06T03:29:37.277Z,0.00
2017-11-06T03:30:37.307Z,0.00
2017-11-06T03:31:37.333Z,0.00
2017-11-06T03:32:37.362Z,0.00
2017-11-06T03:33:37.391Z,0.00
2017-11-06T03:34:37.421Z,0.00
2017-11-06T03:35:37.449Z,0.00
2017-11-06T03:36:37.481Z,0.00
2017-11-06T03:37:37.507Z,0.00
2017-11-06T03:38:37.540Z,0.00
2017-11-06T03:39:37.565Z,0.00
2017-11-06T03:40:37.593Z,0.00
2017-11-06T03:41:37.671Z,0.00
2017-11-06T03:42:37.651Z,0.00
2017-11-06T03:43:37.679Z,0.00
2017-11-06T03:44:37.707Z,0.00
2017-11-06T03:45:37.738Z,0.00
2017-11-06T03:46:37.767Z,0.00
2017-11-06T03:47:37.794Z,0.00
2017-11-06T03:48:37.823Z,0.00
2017-11-06T03:49:37.852Z,0.00
2017-11-06T03:50:37.880Z,0.00
2017-11-06T03:51:37.910Z,0.00
2017-11-06T03:52:37.943Z,0.00
2017-11-06T03:53:37.968Z,0.00
2017-11-06T03:54:37.998Z,0.00
2017-11-06T03:55:38.026Z,0.00
2017-11-06T03:56:38.055Z,0.00
2017-11-06T03:57:38.083Z,0.00
2017-11-06T03:58:38.112Z,0.00
2017-11-06T03:59:38.141Z,0.00
2017-11-06T04:00:38.169Z,0.00
2017-11-06T04:01:38.198Z,0.00
2017-11-06T04:02:38.234Z,0.00
2017-11-06T04:03:38.257Z,0.00
2017-11-06T04:04:38.285Z,0.00
2017-11-06T04:05:38.315Z,0.00
2017-11-06T04:06:38.342Z,0.00
2017-11-06T04:07:38.372Z,0.00
2017-11-06T04:08:38.399Z,0.00
2017-11-06T04:09:38.428Z,0.00
2017-11-06T04:10:38.456Z,0.00
2017-11-06T04:11:38.485Z,0.00
2017-11-06T04:12:38.514Z,0.00
2017-11-06T04:13:38.549Z,0.00
2017-11-06T04:14:38.572Z,0.00
2017-11-06T04:15:38.601Z,0.00
2017-11-06T04:16:38.629Z,0.00
2017-11-06T04:17:38.658Z,0.00
2017-11-06T04:18:38.686Z,0.00
2017-11-06T04:19:38.714Z,0.00
2017-11-06T04:20:38.742Z,0.00
2017-11-06T04:21:38.773Z,0.00
2017-11-06T04:22:38.803Z,0.00
2017-11-06T04:23:38.836Z,0.00
2017-11-06T04:24:38.861Z,0.00
2017-11-06T04:25:38.886Z,0.00
2017-11-06T04:26:38.915Z,0.00
2017-11-06T04:27:38.945Z,0.00
2017-11-06T04:28:38.973Z,0.00
2017-11-06T04:29:39.001Z,0.00
2017-11-06T04:30:39.029Z,0.00
2017-11-06T04:31:39.059Z,0.00
2017-11-06T04:32:39.090Z,0.00
2017-11-06T04:33:39.167Z,0.00
2017-11-06T04:34:39.146Z,0.00
2017-11-06T04:35:39.175Z,0.00
2017-11-06T04:36:39.203Z,0.00
2017-11-06T04:37:39.232Z,0.00
2017-11-06T04:38:39.259Z,0.00
2017-11-06T04:39:39.290Z,0.00
2017-11-06T04:40:39.316Z,0.00
2017-11-06T04:41:39.346Z,0.00
2017-11-06T04:42:39.376Z,0.00
2017-11-06T04:43:39.407Z,0.00
2017-11-06T04:44:39.433Z,0.00
2017-11-06T04:45:39.463Z,0.00
2017-11-06T04:46:39.491Z,0.00
2017-11-06T04:47:39.521Z,0.00
2017-11-06T04:48:39.549Z,0.00
2017-11-06T04:49:39.577Z,0.00
2017-11-06T04:50:39.605Z,0.00
2017-11-06T04:51:39.635Z,0.00
2017-11-06T04:52:39.663Z,0.00
2017-11-06T04:53:39.693Z,0.00
2017-11-06T04:54:39.771Z,0.00
2017-11-06T04:55:39.751Z,0.00
2017-11-06T04:56:39.777Z,0.00
2017-11-06T04:57:39.808Z,0.00
2017-11-06T04:58:39.835Z,0.00
2017-11-06T04:59:39.866Z,0.00
2017-11-06T05:00:39.894Z,0.00
2017-11-06T05:01:39.921Z,0.00
2017-11-06T05:02:39.952Z,0.00
2017-11-06T05:03:39.980Z,0.00
2017-11-06T05:04:40.007Z,0.00
2017-11-06T05:05:40.037Z,0.00
2017-11-06T05:06:40.066Z,0.00
2017-11-06T05:07:40.095Z,0.00
2017-11-06T05:08:40.123Z,0.00
2017-11-06T05:09:40.151Z,0.00
2017-11-06T05:10:40.187Z,0.00
2017-11-06T05:11:40.209Z,0.00
2017-11-06T05:12:40.235Z,0.00
2017-11-06T05:13:40.266Z,0.00
2017-11-06T05:14:40.344Z,0.00
2017-11-06T05:15:40.324Z,0.00
2017-11-06T05:16:40.357Z,0.00
2017-11-06T05:17:40.379Z,0.00
2017-11-06T05:18:40.409Z,0.00
2017-11-06T05:19:40.438Z,0.00
2017-11-06T05:20:40.465Z,0.00
2017-11-06T05:21:40.493Z,0.00
2017-11-06T05:22:40.522Z,0.00
2017-11-06T05:23:40.551Z,0.00
2017-11-06T05:24:40.629Z,0.00
2017-11-06T05:25:40.607Z,0.00
2017-11-06T05:26:40.636Z,0.00
2017-11-06T05:27:40.666Z,0.00
2017-11-06T05:28:40.694Z,0.00
2017-11-06T05:29:40.724Z,0.00
2017-11-06T05:30:40.752Z,0.00
2017-11-06T05:31:40.781Z,0.00
2017-11-06T05:32:40.808Z,0.00
2017-11-06T05:33:40.836Z,0.00
2017-11-06T05:34:40.865Z,0.00
2017-11-06T05:35:40.894Z,0.00
2017-11-06T05:36:40.923Z,0.00
2017-11-06T05:37:40.951Z,0.00
2017-11-06T05:38:40.980Z,0.00
2017-11-06T05:39:41.009Z,0.00
2017-11-06T05:40:41.038Z,0.00
2017-11-06T05:41:41.066Z,0.00
2017-11-06T05:42:41.095Z,0.00
2017-11-06T05:43:41.122Z,0.00
2017-11-06T05:44:41.151Z,0.00
2017-11-06T05:45:41.180Z,0.00
2017-11-06T05:46:41.208Z,0.00
2017-11-06T05:47:41.238Z,0.00
2017-11-06T05:48:41.264Z,0.00
2017-11-06T05:49:41.293Z,0.00
2017-11-06T05:50:41.322Z,0.00
2017-11-06T05:51:41.351Z,0.00
2017-11-06T05:52:41.380Z,0.00
2017-11-06T05:53:41.408Z,0.00
2017-11-06T05:54:41.436Z,0.00
2017-11-06T05:55:41.465Z,0.00
2017-11-06T05:56:41.497Z,4.00
2017-11-06T05:57:41.522Z,4.00
2017-11-06T05:58:41.559Z,4.00
2017-11-06T05:59:41.578Z,4.00
2017-11-06T06:00:41.605Z,8.00
2017-11-06T06:01:41.634Z,8.00
2017-11-06T06:02:41.664Z,8.00
2017-11-06T06:03:41.696Z,12.00
2017-11-06T06:04:41.720Z,12.00
2017-11-06T06:05:41.749Z,16.00
2017-11-06T06:06:41.779Z,20.00
2017-11-06T06:07:41.806Z,24.00
2017-11-06T06:08:41.835Z,28.00
2017-11-06T06:09:41.863Z,36.00
2017-11-06T06:10:41.891Z,40.00
2017-11-06T06:11:41.920Z,48.00
2017-11-06T06:12:41.947Z,56.00
2017-11-06T06:13:41.976Z,64.00
2017-11-06T06:14:42.006Z,76.00
2017-11-06T06:15:42.083Z,88.00
2017-11-06T06:16:42.062Z,100.00
2017-11-06T06:17:42.090Z,112.00
2017-11-06T06:18:42.120Z,132.00
2017-11-06T06:19:42.146Z,148.00
2017-11-06T06:20:42.176Z,168.00
2017-11-06T06:21:42.203Z,184.00
2017-11-06T06:22:42.232Z,204.00
2017-11-06T06:23:42.261Z,228.00
2017-11-06T06:24:42.287Z,244.00
2017-11-06T06:25:42.316Z,264.00
2017-11-06T06:26:42.357Z,280.00
2017-11-06T06:27:42.379Z,300.00
2017-11-06T06:28:42.400Z,332.00
2017-11-06T06:29:42.429Z,356.00
2017-11-06T06:30:42.457Z,384.00
2017-11-06T06:31:42.487Z,412.00
2017-11-06T06:32:42.513Z,460.00
2017-11-06T06:33:42.541Z,496.00
2017-11-06T06:34:42.570Z,540.00
2017-11-06T06:35:42.600Z,584.00
2017-11-06T06:36:42.626Z,616.00
2017-11-06T06:37:42.654Z,628.00
2017-11-06T06:38:42.683Z,644.00
2017-11-06T06:39:42.710Z,672.00
2017-11-06T06:40:42.739Z,732.00
2017-11-06T06:41:42.766Z,788.00
2017-11-06T06:42:42.794Z,828.00
2017-11-06T06:43:42.824Z,852.00
2017-11-06T06:44:42.851Z,884.00
2017-11-06T06:45:42.879Z,916.00
2017-11-06T06:46:42.924Z,940.00
2017-11-06T06:47:42.939Z,960.00
2017-11-06T06:48:42.963Z,968.00
2017-11-06T06:49:43.015Z,972.00
2017-11-06T06:50:43.019Z,944.00
2017-11-06T06:51:43.048Z,980.00
2017-11-06T06:52:43.075Z,1064.00
2017-11-06T06:53:43.103Z,1104.00
2017-11-06T06:54:43.132Z,1144.00
2017-11-06T06:55:43.160Z,1184.00
2017-11-06T06:56:43.237Z,1200.00
2017-11-06T06:57:43.215Z,1216.00
2017-11-06T06:58:43.244Z,1240.00
2017-11-06T06:59:43.271Z,1224.00
2017-11-06T07:00:43.299Z,1244.00
2017-11-06T07:01:43.328Z,1272.00
2017-11-06T07:02:43.356Z,1192.00
2017-11-06T07:03:43.386Z,1220.00
2017-11-06T07:04:43.418Z,1332.00
2017-11-06T07:05:43.440Z,1420.00
2017-11-06T07:06:43.469Z,1436.00
2017-11-06T07:07:43.496Z,1420.00
2017-11-06T07:08:43.525Z,1464.00
2017-11-06T07:09:43.553Z,1556.00
2017-11-06T07:10:43.582Z,1600.00
2017-11-06T07:11:43.611Z,1704.00
2017-11-06T07:12:43.637Z,1820.00
2017-11-06T07:13:43.665Z,1940.00
2017-11-06T07:14:43.699Z,2108.00
2017-11-06T07:15:43.732Z,2160.00
2017-11-06T07:16:43.751Z,2156.00
2017-11-06T07:17:43.779Z,2236.00
2017-11-06T07:18:43.811Z,2452.00
2017-11-06T07:19:43.840Z,2632.00
2017-11-06T07:20:43.867Z,2784.00
2017-11-06T07:21:43.894Z,2816.00
2017-11-06T07:22:43.924Z,2968.00
2017-11-06T07:23:43.948Z,3052.00
2017-11-06T07:24:43.976Z,3152.00
2017-11-06T07:25:44.006Z,3248.00
2017-11-06T07:26:44.034Z,3484.00
2017-11-06T07:27:44.063Z,3560.00
2017-11-06T07:28:44.090Z,3604.00
2017-11-06T07:29:44.119Z,3700.00
2017-11-06T07:30:44.147Z,3828.00
2017-11-06T07:31:44.180Z,3676.00
2017-11-06T07:32:44.204Z,3404.00
2017-11-06T07:33:44.234Z,3220.00
2017-11-06T07:34:44.262Z,3176.00
2017-11-06T07:35:44.294Z,3196.00
2017-11-06T07:36:44.320Z,3248.00
2017-11-06T07:37:44.347Z,3340.00
2017-11-06T07:38:44.376Z,3272.00
2017-11-06T07:39:44.408Z,3160.00
2017-11-06T07:40:44.433Z,3216.00
2017-11-06T07:41:44.472Z,3240.00
2017-11-06T07:42:44.492Z,3208.00
2017-11-06T07:43:44.525Z,3376.00
2017-11-06T07:44:44.549Z,3512.00
2017-11-06T07:45:44.579Z,3664.00
2017-11-06T07:46:44.609Z,3936.00
2017-11-06T07:47:44.635Z,4276.00
2017-11-06T07:48:44.665Z,4408.00
2017-11-06T07:49:44.694Z,4332.00
2017-11-06T07:50:44.725Z,4232.00
2017-11-06T07:51:44.754Z,4212.00
2017-11-06T07:52:44.782Z,4136.00
2017-11-06T07:53:44.812Z,4052.00
2017-11-06T07:54:44.839Z,3868.00
2017-11-06T07:55:44.870Z,3852.00
2017-11-06T07:56:44.897Z,3944.00
2017-11-06T07:57:44.926Z,4184.00
2017-11-06T07:58:44.956Z,4448.00
2017-11-06T07:59:44.991Z,4740.00
2017-11-06T08:00:45.014Z,4812.00
2017-11-06T08:01:45.042Z,4780.00
2017-11-06T08:02:45.073Z,4792.00
2017-11-06T08:03:45.101Z,4908.00
2017-11-06T08:04:45.130Z,4920.00
2017-11-06T08:05:45.158Z,4836.00
2017-11-06T08:06:45.187Z,4680.00
2017-11-06T08:07:45.217Z,4512.00
2017-11-06T08:08:45.246Z,4256.00
2017-11-06T08:09:45.325Z,4016.00
2017-11-06T08:10:45.304Z,4052.00
2017-11-06T08:11:45.340Z,4084.00
2017-11-06T08:12:45.361Z,4164.00
2017-11-06T08:13:45.391Z,4468.00
2017-11-06T08:14:45.420Z,4664.00
2017-11-06T08:15:45.449Z,4764.00
2017-11-06T08:16:45.477Z,4668.00
2017-11-06T08:17:45.509Z,4668.00
2017-11-06T08:18:45.537Z,4804.00
2017-11-06T08:19:45.568Z,4772.00
2017-11-06T08:20:45.594Z,4636.00
2017-11-06T08:21:45.622Z,4672.00
2017-11-06T08:22:45.652Z,4848.00
2017-11-06T08:23:45.681Z,4900.00
2017-11-06T08:24:45.711Z,5072.00
2017-11-06T08:25:45.739Z,5200.00
2017-11-06T08:26:45.769Z,5332.00
2017-11-06T08:27:45.798Z,5408.00
2017-11-06T08:28:45.827Z,5472.00
2017-11-06T08:29:45.856Z,5588.00
2017-11-06T08:30:45.905Z,5728.00
2017-11-06T08:31:45.913Z,6024.00
2017-11-06T08:32:45.942Z,6396.00
2017-11-06T08:33:45.976Z,6708.00
2017-11-06T08:34:46.004Z,6900.00
2017-11-06T08:35:46.031Z,7048.00
2017-11-06T08:36:46.061Z,7212.00
2017-11-06T08:37:46.089Z,7676.00
2017-11-06T08:38:46.119Z,8276.00
2017-11-06T08:39:46.147Z,8220.00
2017-11-06T08:40:46.176Z,8292.00
2017-11-06T08:41:46.205Z,7848.00
2017-11-06T08:42:46.243Z,6832.00
2017-11-06T08:43:46.265Z,6292.00
2017-11-06T08:44:46.294Z,6300.00
2017-11-06T08:45:46.324Z,6664.00
2017-11-06T08:46:46.354Z,6908.00
2017-11-06T08:47:46.384Z,7020.00
2017-11-06T08:48:46.413Z,7292.00
2017-11-06T08:49:46.442Z,7868.00
2017-11-06T08:50:46.471Z,8128.00
2017-11-06T08:51:46.501Z,7788.00
2017-11-06T08:52:46.529Z,7764.00
2017-11-06T08:53:46.560Z,8244.00
2017-11-06T08:54:46.589Z,8156.00
2017-11-06T08:55:46.621Z,8288.00
2017-11-06T08:56:46.648Z,7948.00
2017-11-06T08:57:46.678Z,8464.00
2017-11-06T08:58:46.709Z,8980.00
2017-11-06T08:59:46.738Z,9524.00
2017-11-06T09:00:46.768Z,9320.00
2017-11-06T09:01:46.802Z,8800.00
2017-11-06T09:02:46.827Z,8992.00
2017-11-06T09:03:46.857Z,9016.00
2017-11-06T09:04:46.885Z,8988.00
2017-11-06T09:05:46.916Z,9276.00
2017-11-06T09:06:46.996Z,9372.00
2017-11-06T09:07:46.977Z,9380.00
2017-11-06T09:08:47.005Z,9428.00
2017-11-06T09:09:47.036Z,8436.00
2017-11-06T09:10:47.066Z,7376.00
2017-11-06T09:11:47.095Z,6816.00
2017-11-06T09:12:47.123Z,6792.00
2017-11-06T09:13:47.154Z,7556.00
2017-11-06T09:14:47.186Z,7800.00
2017-11-06T09:15:47.215Z,8280.00
2017-11-06T09:16:47.243Z,8388.00
2017-11-06T09:17:47.274Z,9284.00
2017-11-06T09:18:47.304Z,9508.00
2017-11-06T09:19:47.333Z,9904.00
2017-11-06T09:20:47.364Z,8852.00
2017-11-06T09:21:47.393Z,9260.00
2017-11-06T09:22:47.423Z,10476.00
2017-11-06T09:23:47.452Z,21440.00
2017-11-06T09:24:47.513Z,15376.00
2017-11-06T09:25:47.513Z,13112.00
2017-11-06T09:26:47.543Z,30752.00
2017-11-06T09:27:47.581Z,14100.00
2017-11-06T09:28:47.603Z,21184.00
2017-11-06T09:29:47.636Z,23744.00
2017-11-06T09:30:47.664Z,25792.00
2017-11-06T09:31:47.700Z,19040.00
2017-11-06T09:32:47.727Z,12660.00
2017-11-06T09:33:47.761Z,11864.00
2017-11-06T09:34:47.791Z,15488.00
2017-11-06T09:35:47.821Z,12572.00
2017-11-06T09:36:47.852Z,13416.00
2017-11-06T09:37:47.883Z,13968.00
2017-11-06T09:38:47.917Z,15320.00
2017-11-06T09:39:47.949Z,13544.00
2017-11-06T09:40:47.979Z,13788.00
2017-11-06T09:41:48.011Z,22656.00
2017-11-06T09:42:48.043Z,14236.00
2017-11-06T09:43:48.085Z,13884.00
2017-11-06T09:44:48.107Z,19488.00
2017-11-06T09:45:48.136Z,12160.00
2017-11-06T09:46:48.169Z,11176.00
2017-11-06T09:47:48.201Z,12788.00
2017-11-06T09:48:48.233Z,34848.00
2017-11-06T09:49:48.265Z,55104.00
2017-11-06T09:50:48.296Z,15208.00
2017-11-06T09:51:48.328Z,10360.00
2017-11-06T09:52:48.414Z,8916.00
2017-11-06T09:53:48.393Z,9328.00
2017-11-06T09:54:48.425Z,12380.00
2017-11-06T09:55:48.459Z,13752.00
2017-11-06T09:56:48.490Z,28288.00
2017-11-06T09:57:48.523Z,15256.00
2017-11-06T09:58:48.556Z,15692.00
2017-11-06T09:59:48.587Z,17504.00
2017-11-06T10:00:48.619Z,18112.00
2017-11-06T10:01:48.652Z,18592.00
2017-11-06T10:02:48.684Z,19648.00
2017-11-06T10:03:48.719Z,42720.00
2017-11-06T10:04:48.750Z,21920.00
2017-11-06T10:05:48.784Z,19200.00
2017-11-06T10:06:48.817Z,21696.00
2017-11-06T10:07:48.851Z,69056.00
2017-11-06T10:08:48.882Z,25536.00
2017-11-06T10:09:48.915Z,64832.00
2017-11-06T10:10:48.953Z,36032.00
2017-11-06T10:11:48.984Z,24832.00
2017-11-06T10:12:49.014Z,17440.00
2017-11-06T10:13:49.048Z,13080.00
2017-11-06T10:14:49.085Z,11876.00
2017-11-06T10:15:49.116Z,13404.00
2017-11-06T10:16:49.150Z,13216.00
2017-11-06T10:17:49.185Z,13940.00
2017-11-06T10:18:49.218Z,13416.00
2017-11-06T10:19:49.252Z,11488.00
2017-11-06T10:20:49.285Z,10456.00
2017-11-06T10:21:49.319Z,10908.00
2017-11-06T10:22:49.352Z,11788.00
2017-11-06T10:23:49.384Z,11036.00
2017-11-06T10:24:49.419Z,10688.00
2017-11-06T10:25:49.451Z,10344.00
2017-11-06T10:26:49.483Z,10348.00
2017-11-06T10:27:49.517Z,11164.00
2017-11-06T10:28:49.549Z,11828.00
2017-11-06T10:29:49.580Z,14668.00
2017-11-06T10:30:49.615Z,59296.00
2017-11-06T10:31:49.647Z,24000.00
2017-11-06T10:32:49.679Z,14008.00
2017-11-06T10:33:49.711Z,19584.00
2017-11-06T10:34:49.744Z,18496.00
2017-11-06T10:35:49.785Z,22368.00
2017-11-06T10:36:49.813Z,19680.00
2017-11-06T10:37:49.844Z,19072.00
2017-11-06T10:38:49.875Z,30176.00
2017-11-06T10:39:49.909Z,31328.00
2017-11-06T10:40:49.941Z,41408.00
2017-11-06T10:41:49.975Z,73568.00
2017-11-06T10:42:50.010Z,39712.00
2017-11-06T10:43:50.043Z,70080.00
2017-11-06T10:44:50.076Z,73088.00
2017-11-06T10:45:50.111Z,49760.00
2017-11-06T10:46:50.147Z,61888.00
2017-11-06T10:47:50.185Z,48640.00
2017-11-06T10:48:50.218Z,65056.00
2017-11-06T10:49:50.305Z,27456.00
2017-11-06T10:50:50.292Z,24544.00
2017-11-06T10:51:50.330Z,22368.00
2017-11-06T10:52:50.364Z,33184.00
2017-11-06T10:53:50.402Z,38912.00
2017-11-06T10:54:50.454Z,24480.00
2017-11-06T10:55:50.477Z,66432.00
2017-11-06T10:56:50.515Z,49376.00
2017-11-06T10:57:50.552Z,16800.00
2017-11-06T10:58:50.590Z,15712.00
2017-11-06T10:59:50.678Z,13360.00
2017-11-06T11:00:50.668Z,15084.00
2017-11-06T11:01:50.701Z,11504.00
2017-11-06T11:02:50.744Z,10016.00
2017-11-06T11:03:50.781Z,9764.00
2017-11-06T11:04:50.913Z,8848.00
2017-11-06T11:05:50.850Z,10396.00
2017-11-06T11:06:50.886Z,9972.00
2017-11-06T11:07:50.932Z,10604.00
2017-11-06T11:08:50.957Z,10704.00
2017-11-06T11:09:50.993Z,11484.00
2017-11-06T11:10:51.030Z,14648.00
2017-11-06T11:11:51.064Z,13496.00
2017-11-06T11:12:51.104Z,12820.00
2017-11-06T11:13:51.135Z,13280.00
2017-11-06T11:14:51.170Z,12216.00
2017-11-06T11:15:51.206Z,12724.00
2017-11-06T11:16:51.240Z,11716.00
2017-11-06T11:17:51.292Z,11800.00
2017-11-06T11:18:51.309Z,11996.00
2017-11-06T11:19:51.344Z,11552.00
2017-11-06T11:20:51.378Z,10624.00
2017-11-06T11:21:51.413Z,9540.00
2017-11-06T11:22:51.448Z,8744.00
2017-11-06T11:23:51.483Z,8244.00
2017-11-06T11:24:51.514Z,7720.00
2017-11-06T11:25:51.550Z,8076.00
2017-11-06T11:26:51.584Z,7480.00
2017-11-06T11:27:51.618Z,7080.00
2017-11-06T11:28:51.651Z,6756.00
2017-11-06T11:29:51.683Z,6724.00
2017-11-06T11:30:51.718Z,6648.00
2017-11-06T11:31:51.752Z,6476.00
2017-11-06T11:32:51.783Z,6208.00
2017-11-06T11:33:51.817Z,5780.00
2017-11-06T11:34:51.849Z,5272.00
2017-11-06T11:35:51.883Z,4960.00
2017-11-06T11:36:51.916Z,4852.00
2017-11-06T11:37:51.948Z,4908.00
2017-11-06T11:38:51.981Z,4912.00
2017-11-06T11:39:52.015Z,4880.00
2017-11-06T11:40:52.043Z,4700.00
2017-11-06T11:41:52.076Z,4392.00
2017-11-06T11:42:52.109Z,4184.00
2017-11-06T11:43:52.142Z,3968.00
2017-11-06T11:44:52.173Z,3856.00
2017-11-06T11:45:52.205Z,3700.00
2017-11-06T11:46:52.245Z,3624.00
2017-11-06T11:47:52.269Z,3728.00
2017-11-06T11:48:52.301Z,3920.00
2017-11-06T11:49:52.334Z,4084.00
2017-11-06T11:50:52.365Z,4232.00
2017-11-06T11:51:52.398Z,4320.00
2017-11-06T11:52:52.429Z,4412.00
2017-11-06T11:53:52.464Z,4572.00
2017-11-06T11:54:52.492Z,4748.00
2017-11-06T11:55:52.525Z,4836.00
2017-11-06T11:56:52.555Z,4844.00
2017-11-06T11:57:52.587Z,4844.00
2017-11-06T11:58:52.619Z,5128.00
2017-11-06T11:59:52.652Z,5404.00
2017-11-06T12:00:52.683Z,5604.00
2017-11-06T12:01:52.714Z,5900.00
2017-11-06T12:02:52.746Z,6300.00
2017-11-06T12:03:52.777Z,7332.00
2017-11-06T12:04:52.810Z,7856.00
2017-11-06T12:05:52.840Z,7744.00
2017-11-06T12:06:52.873Z,8168.00
2017-11-06T12:07:52.909Z,8228.00
2017-11-06T12:08:52.934Z,8204.00
2017-11-06T12:09:52.968Z,8568.00
2017-11-06T12:10:53.000Z,8912.00
2017-11-06T12:11:53.031Z,9756.00
2017-11-06T12:12:53.063Z,10704.00
2017-11-06T12:13:53.094Z,11124.00
2017-11-06T12:14:53.127Z,10376.00
2017-11-06T12:15:53.160Z,9524.00
2017-11-06T12:16:53.190Z,8856.00
2017-11-06T12:17:53.222Z,8328.00
2017-11-06T12:18:53.256Z,7840.00
2017-11-06T12:19:53.288Z,7488.00
2017-11-06T12:20:53.319Z,7304.00
2017-11-06T12:21:53.351Z,7136.00
2017-11-06T12:22:53.384Z,7056.00
2017-11-06T12:23:53.416Z,7004.00
2017-11-06T12:24:53.447Z,6928.00
2017-11-06T12:25:53.479Z,6768.00
2017-11-06T12:26:53.512Z,6776.00
2017-11-06T12:27:53.544Z,6936.00
2017-11-06T12:28:53.576Z,7048.00
2017-11-06T12:29:53.606Z,6880.00
2017-11-06T12:30:53.640Z,6696.00
2017-11-06T12:31:53.672Z,6424.00
2017-11-06T12:32:53.703Z,6208.00
2017-11-06T12:33:53.736Z,6216.00
2017-11-06T12:34:53.767Z,6072.00
2017-11-06T12:35:53.801Z,5924.00
2017-11-06T12:36:53.831Z,5768.00
2017-11-06T12:37:53.871Z,5736.00